KSFZ Airport (North Central State) Information

FAA: SFZ - ICAO: KSFZ

KSFZ Airport Location

State Rhode Island
County Providence
City Pawtucket
KSFZ Airport is 3 miles east of Pawtucket, RI.
Latitude 41-55-14.7000N
Longitude 071-29-29.1000W
Elevation 440ft

KSFZ Airport METARs

METAR KSFZ 251538Z AUTO 02004KT 3/4SM BR OVC002 12/12 A3001 RMK AO2 PNO $
Altimeter 30.01"
Temperature 12.0°C (53.6°F)
Wind 20° at 4KT
Clouds overcast at 200ft
Visibility 0.75mi
Time observed: 2021-10-25T15:38:00Z

KSFZ Airport Details

Status Operational
Activation December 1951
Ownership Public
Usage Public
Chart NEW YORK
ATC on-site No
Beacon schedule sunset-sunrise
Beacon color clear green

KSFZ Airport Contacts

Owner STATE OF RHODE ISLAND
Owner address RHODE ISLAND AIRPORT CORPORATION, WARWICK, RI 02886
Owner phone (401) 691-2000
Manager DON E. ECKERT
Manager address PO BOX 1702, YORK, PA 17405
Manager phone 717-764-9864

KSFZ Airport (North Central State) Radio Frequencies

KSFZ (Airport) Radio Frequencies

UNICOM 123.075
Common traffic advisory frequency (CTAF) 123.075